Rocky Mount Wilson Regional Airport Rocky Mount US
ICAO: KRWI
IATA: RWI
Category: Medium
Scheduled Services: No

Elevation: 159 ft
TransAlt. 18000 ft.

Airport Communications:
ASOS:118.875
CLNC DEL:122.3
WASHINGTON CNTR:135.3
RALEIGH RDO:122.2
CTAF/UNICOM:123.05

KRWI Zoom In..

If you have problems with the map follow the link
https://www.worldairports.se/pages/airport.php?
ICAO=KRWI

Runways:

(A) RW 04 length 7099 ft width 150 ft
ILS 108.30 / hdg 42

(B) RW 22 length 7099 ft width 150 ft
---- / hdg 222

Location; KRWI
Day. 10 / Time. 03.11 Zulu
* Altimeter: 30.00
* Temperature: 17° c. 62.6°f.
* Wind from: 190° Speed 09 kn.
Dewpoint: 16° c.
Visibility: 10 Statute Miles.
Clouds: Scattered 800 ft.

KRWI 100311Z AUTO 19009KT 10SM SCT008 17/16 A3000 RMK AO2 T01670156


Wind From 190°
Speed 09 kn.

 
 
jpsmedia worldairports.se 2019   terms of use